Terminal Aerodrome Forecast
Issued by NWS

Home | Current Version | Previous Version | Text Only | Print | Product List | Glossary On
Versions: 1 2 3 4 5 6 7 8 9 10 11 12 13 14 15 16 17 18 19 20 21 22
649
FTUS43 KLSX 210812 AAB
TAFUIN
TAF AMD
KUIN 210812Z 2108/2206 15008KT P6SM SKC
     FM211000 17009KT 4SM BR FEW250 WS020/21040KT
     FM211400 20010KT P6SM SCT200
     FM220200 VRB03KT P6SM SCT110=

USA.gov is the U.S. government's official web portal to all federal, state and local government web resources and services.